Fayville, Illinois
Current Conditions -  °F | °C
As of 2:42 PM on Monday 22 Dec 2014 (Local Time) from KCGI Reporting Station
Light Rain Light Rain  
Wind Chill: 51°   Ceiling: 600
Heat Index: 51°   Visibility: 1.7mi
Dew Point: 50°   Wind: 9mph
Humidity: 96%   Direction: 150°SSE
Pressure: 29.61"   Gusts: NA
Location:  37.1947°N, 89.3961°W
Report Text: KCGI 222042Z 15008KT 1 3/4SM -RA BR OVC006 11/10 A2961 RMK AO2 RAB39 CIG 005V010 P0001 T01060100
Loading
Personal Weather Stations






























Interactive Weather Map New forecast layout! Learn more

10-Day Weather Forecast

Advertisements
Track Severe Weather on mobile